createdAt,value
2018-07-30T00:00:55.048Z,999.75
2018-07-30T00:01:55.075Z,999.71
2018-07-30T00:02:55.025Z,999.72
2018-07-30T00:03:55.041Z,999.73
2018-07-30T00:04:55.003Z,999.71
2018-07-30T00:05:54.993Z,999.70
2018-07-30T00:06:54.992Z,999.71
2018-07-30T00:07:54.973Z,999.72
2018-07-30T00:08:54.986Z,999.70
2018-07-30T00:09:54.953Z,999.74
2018-07-30T00:10:54.937Z,999.71
2018-07-30T00:11:54.926Z,999.70
2018-07-30T00:12:54.915Z,999.71
2018-07-30T00:13:54.935Z,999.70
2018-07-30T00:14:54.893Z,999.67
2018-07-30T00:15:54.886Z,999.68
2018-07-30T00:16:54.871Z,999.71
2018-07-30T00:17:54.861Z,999.68
2018-07-30T00:18:54.852Z,999.71
2018-07-30T00:19:54.864Z,999.68
2018-07-30T00:20:54.827Z,999.68
2018-07-30T00:21:54.821Z,999.70
2018-07-30T00:22:54.805Z,999.65
2018-07-30T00:23:54.793Z,999.70
2018-07-30T00:24:54.811Z,999.65
2018-07-30T00:25:54.771Z,999.62
2018-07-30T00:26:54.761Z,999.66
2018-07-30T00:27:54.751Z,999.65
2018-07-30T00:28:54.739Z,999.68
2018-07-30T00:29:54.755Z,999.65
2018-07-30T00:30:54.720Z,999.64
2018-07-30T00:31:54.705Z,999.65
2018-07-30T00:32:54.695Z,999.67
2018-07-30T00:33:54.683Z,999.66
2018-07-30T00:34:54.698Z,999.66
2018-07-30T00:35:54.664Z,999.70
2018-07-30T00:36:54.651Z,999.75
2018-07-30T00:37:54.642Z,999.77
2018-07-30T00:38:54.631Z,999.75
2018-07-30T00:39:54.643Z,999.74
2018-07-30T00:40:54.607Z,999.74
2018-07-30T00:41:54.597Z,999.76
2018-07-30T00:42:54.584Z,999.74
2018-07-30T00:43:54.575Z,999.75
2018-07-30T00:44:54.588Z,999.79
2018-07-30T00:45:54.552Z,999.74
2018-07-30T00:46:54.544Z,999.77
2018-07-30T00:47:54.529Z,999.77
2018-07-30T00:48:54.517Z,999.78
2018-07-30T00:49:54.532Z,999.79
2018-07-30T00:50:54.496Z,999.82
2018-07-30T00:51:54.485Z,999.81
2018-07-30T00:52:54.475Z,999.85
2018-07-30T00:53:54.463Z,999.82
2018-07-30T00:54:54.523Z,999.84
2018-07-30T00:55:54.440Z,999.83
2018-07-30T00:56:54.495Z,999.83
2018-07-30T00:57:54.417Z,999.88
2018-07-30T00:58:54.408Z,999.86
2018-07-30T00:59:54.426Z,999.87
2018-07-30T01:00:54.385Z,999.89
2018-07-30T01:01:54.374Z,999.87
2018-07-30T01:02:54.363Z,999.90
2018-07-30T01:03:54.352Z,999.89
2018-07-30T01:04:54.373Z,999.91
2018-07-30T01:05:54.330Z,999.93
2018-07-30T01:06:54.318Z,999.95
2018-07-30T01:07:54.308Z,999.95
2018-07-30T01:08:54.298Z,999.94
2018-07-30T01:09:54.315Z,999.99
2018-07-30T01:10:54.274Z,1000.00
2018-07-30T01:11:54.263Z,1000.04
2018-07-30T01:12:54.253Z,1000.03
2018-07-30T01:13:54.243Z,1000.00
2018-07-30T01:14:54.258Z,999.97
2018-07-30T01:15:54.219Z,1000.02
2018-07-30T01:16:54.207Z,1000.01
2018-07-30T01:17:54.197Z,1000.00
2018-07-30T01:18:54.191Z,999.99
2018-07-30T01:19:54.205Z,999.99
2018-07-30T01:20:54.164Z,1000.04
2018-07-30T01:21:54.155Z,1000.02
2018-07-30T01:22:54.142Z,1000.04
2018-07-30T01:23:54.132Z,1000.03
2018-07-30T01:24:54.162Z,1000.02
2018-07-30T01:25:54.111Z,1000.01
2018-07-30T01:26:54.098Z,1000.02
2018-07-30T01:27:54.088Z,1000.00
2018-07-30T01:28:54.075Z,1000.03
2018-07-30T01:29:54.067Z,1000.06
2018-07-30T01:30:54.079Z,1000.03
2018-07-30T01:31:54.043Z,1000.06
2018-07-30T01:32:54.031Z,1000.08
2018-07-30T01:33:54.022Z,1000.06
2018-07-30T01:34:54.010Z,1000.12
2018-07-30T01:35:54.024Z,1000.14
2018-07-30T01:36:53.987Z,1000.15
2018-07-30T01:37:53.977Z,1000.16
2018-07-30T01:38:53.965Z,1000.17
2018-07-30T01:39:53.955Z,1000.21
2018-07-30T01:40:53.969Z,1000.19
2018-07-30T01:41:53.932Z,1000.23
2018-07-30T01:42:53.930Z,1000.22
2018-07-30T01:43:53.910Z,1000.21
2018-07-30T01:44:53.899Z,1000.22
2018-07-30T01:45:53.918Z,1000.23
2018-07-30T01:46:53.877Z,1000.23
2018-07-30T01:47:53.864Z,1000.22
2018-07-30T01:48:53.855Z,1000.21
2018-07-30T01:49:53.846Z,1000.19
2018-07-30T01:50:53.861Z,1000.21
2018-07-30T01:51:53.821Z,1000.20
2018-07-30T01:52:53.811Z,1000.22
2018-07-30T01:53:53.798Z,1000.22
2018-07-30T01:54:53.790Z,1000.23
2018-07-30T01:55:53.806Z,1000.25
2018-07-30T01:56:53.766Z,1000.25
2018-07-30T01:57:53.755Z,1000.25
2018-07-30T01:58:53.747Z,1000.29
2018-07-30T01:59:53.734Z,1000.30
2018-07-30T02:00:53.748Z,1000.29
2018-07-30T02:01:53.715Z,1000.29
2018-07-30T02:02:53.701Z,1000.30
2018-07-30T02:03:53.690Z,1000.32
2018-07-30T02:04:53.678Z,1000.29
2018-07-30T02:05:53.694Z,1000.30
2018-07-30T02:06:53.659Z,1000.27
2018-07-30T02:07:53.646Z,1000.30
2018-07-30T02:08:53.640Z,1000.29
2018-07-30T02:09:53.622Z,1000.34
2018-07-30T02:10:53.639Z,1000.34
2018-07-30T02:11:53.602Z,1000.34
2018-07-30T02:12:53.591Z,1000.34
2018-07-30T02:13:53.580Z,1000.32
2018-07-30T02:14:53.568Z,1000.33
2018-07-30T02:15:53.583Z,1000.34
2018-07-30T02:16:53.547Z,1000.33
2018-07-30T02:17:53.540Z,1000.32
2018-07-30T02:18:53.523Z,1000.33
2018-07-30T02:19:53.521Z,1000.33
2018-07-30T02:20:53.528Z,1000.32
2018-07-30T02:21:53.491Z,1000.32
2018-07-30T02:22:53.479Z,1000.36
2018-07-30T02:23:53.469Z,1000.33
2018-07-30T02:24:53.457Z,1000.33
2018-07-30T02:25:53.474Z,1000.32
2018-07-30T02:26:53.435Z,1000.36
2018-07-30T02:27:53.424Z,1000.35
2018-07-30T02:28:53.412Z,1000.32
2018-07-30T02:29:53.406Z,1000.34
2018-07-30T02:30:53.420Z,1000.34
2018-07-30T02:31:53.380Z,1000.31
2018-07-30T02:32:53.370Z,1000.35
2018-07-30T02:33:53.357Z,1000.33
2018-07-30T02:34:53.349Z,1000.32
2018-07-30T02:35:53.374Z,1000.33
2018-07-30T02:36:53.325Z,1000.33
2018-07-30T02:37:53.316Z,1000.33
2018-07-30T02:38:53.303Z,1000.34
2018-07-30T02:39:53.295Z,1000.33
2018-07-30T02:40:53.280Z,1000.38
2018-07-30T02:41:53.298Z,1000.37
2018-07-30T02:42:53.259Z,1000.38
2018-07-30T02:43:53.246Z,1000.37
2018-07-30T02:44:53.237Z,1000.34
2018-07-30T02:45:53.225Z,1000.41
2018-07-30T02:46:53.241Z,1000.48
2018-07-30T02:47:53.208Z,1000.49
2018-07-30T02:48:53.195Z,1000.50
2018-07-30T02:49:53.182Z,1000.47
2018-07-30T02:50:53.169Z,1000.54
2018-07-30T02:51:53.186Z,1000.58
2018-07-30T02:52:53.148Z,1000.58
2018-07-30T02:53:53.140Z,1000.58
2018-07-30T02:54:53.127Z,1000.57
2018-07-30T02:55:53.115Z,1000.59
2018-07-30T02:56:53.131Z,1000.61
2018-07-30T02:57:53.096Z,1000.61
2018-07-30T02:58:53.081Z,1000.63
2018-07-30T02:59:53.071Z,1000.62
2018-07-30T03:00:53.060Z,1000.64
2018-07-30T03:01:53.073Z,1000.63
2018-07-30T03:02:53.038Z,1000.68
2018-07-30T03:03:53.027Z,1000.67
2018-07-30T03:04:53.014Z,1000.68
2018-07-30T03:05:53.007Z,1000.66
2018-07-30T03:06:53.030Z,1000.68
2018-07-30T03:07:52.982Z,1000.70
2018-07-30T03:08:52.971Z,1000.71
2018-07-30T03:09:52.959Z,1000.72
2018-07-30T03:10:52.950Z,1000.66
2018-07-30T03:11:52.965Z,1000.70
2018-07-30T03:12:52.932Z,1000.68
2018-07-30T03:13:52.916Z,1000.68
2018-07-30T03:14:52.908Z,1000.70
2018-07-30T03:15:52.896Z,1000.74
2018-07-30T03:16:52.909Z,1000.73
2018-07-30T03:17:52.872Z,1000.74
2018-07-30T03:18:52.860Z,1000.79
2018-07-30T03:19:52.854Z,1000.79
2018-07-30T03:20:52.838Z,1000.81
2018-07-30T03:21:52.854Z,1000.81
2018-07-30T03:22:52.817Z,1000.86
2018-07-30T03:23:52.806Z,1000.85
2018-07-30T03:24:52.796Z,1000.86
2018-07-30T03:25:52.783Z,1000.84
2018-07-30T03:26:52.802Z,1000.84
2018-07-30T03:27:52.761Z,1000.87
2018-07-30T03:28:52.825Z,1000.89
2018-07-30T03:29:52.739Z,1000.88
2018-07-30T03:30:52.731Z,1000.93
2018-07-30T03:31:52.743Z,1000.90
2018-07-30T03:32:52.707Z,1000.90
2018-07-30T03:33:52.695Z,1000.91
2018-07-30T03:34:52.684Z,1000.91
2018-07-30T03:35:52.672Z,1000.90
2018-07-30T03:36:52.687Z,1000.89
2018-07-30T03:37:52.652Z,1000.90
2018-07-30T03:38:52.639Z,1000.92
2018-07-30T03:39:52.632Z,1000.89
2018-07-30T03:40:52.619Z,1000.92
2018-07-30T03:41:52.634Z,1000.95
2018-07-30T03:42:52.596Z,1000.91
2018-07-30T03:43:52.584Z,1000.92
2018-07-30T03:44:52.573Z,1000.94
2018-07-30T03:45:52.566Z,1000.95
2018-07-30T03:46:52.579Z,1000.93
2018-07-30T03:47:52.589Z,1000.96
2018-07-30T03:48:52.530Z,1000.98
2018-07-30T03:49:52.521Z,1000.97
2018-07-30T03:50:52.512Z,1000.98
2018-07-30T03:51:52.533Z,1001.01
2018-07-30T03:52:52.484Z,1001.01
2018-07-30T03:53:52.475Z,1001.02
2018-07-30T03:54:52.463Z,1001.04
2018-07-30T03:55:52.453Z,1001.05
2018-07-30T03:56:52.439Z,1001.04
2018-07-30T03:57:52.479Z,1001.04
2018-07-30T03:58:52.418Z,1001.01
2018-07-30T03:59:52.462Z,1001.01
2018-07-30T04:00:52.396Z,1001.06
2018-07-30T04:01:52.386Z,1001.06
2018-07-30T04:02:52.399Z,1001.05
2018-07-30T04:03:52.366Z,1001.04
2018-07-30T04:04:52.354Z,1001.05
2018-07-30T04:05:52.349Z,1000.99
2018-07-30T04:06:52.329Z,1000.99
2018-07-30T04:07:52.388Z,1000.98
2018-07-30T04:08:52.313Z,1000.97
2018-07-30T04:09:52.294Z,1000.96
2018-07-30T04:10:52.284Z,1000.96
2018-07-30T04:11:52.275Z,1000.93
2018-07-30T04:12:52.288Z,1000.92
2018-07-30T04:13:52.256Z,1000.94
2018-07-30T04:14:52.250Z,1000.91
2018-07-30T04:15:52.229Z,1000.92
2018-07-30T04:16:52.216Z,1000.92
2018-07-30T04:17:52.234Z,1000.87
2018-07-30T04:18:52.195Z,1000.91
2018-07-30T04:19:52.185Z,1000.88
2018-07-30T04:20:52.173Z,1000.90
2018-07-30T04:21:52.164Z,1000.86
2018-07-30T04:22:52.184Z,1000.88
2018-07-30T04:23:52.140Z,1000.82
2018-07-30T04:24:52.128Z,1000.85
2018-07-30T04:25:52.121Z,1000.83
2018-07-30T04:26:52.110Z,1000.78
2018-07-30T04:27:52.122Z,1000.81
2018-07-30T04:28:52.083Z,1000.83
2018-07-30T04:29:52.072Z,1000.81
2018-07-30T04:30:52.072Z,1000.83
2018-07-30T04:31:52.056Z,1000.82
2018-07-30T04:32:52.074Z,1000.81
2018-07-30T04:33:52.034Z,1000.80
2018-07-30T04:34:52.017Z,1000.78
2018-07-30T04:35:52.008Z,1000.79
2018-07-30T04:36:51.998Z,1000.81
2018-07-30T04:37:52.012Z,1000.81
2018-07-30T04:38:51.973Z,1000.81
2018-07-30T04:39:51.962Z,1000.82
2018-07-30T04:40:51.950Z,1000.80
2018-07-30T04:41:51.944Z,1000.78
2018-07-30T04:42:51.997Z,1000.80
2018-07-30T04:43:51.995Z,1000.82
2018-07-30T04:44:51.908Z,1000.80
2018-07-30T04:45:51.895Z,1000.81
2018-07-30T04:46:51.885Z,1000.77
2018-07-30T04:47:51.901Z,1000.82
2018-07-30T04:48:51.863Z,1000.78
2018-07-30T04:49:51.855Z,1000.83
2018-07-30T04:50:51.854Z,1000.84
2018-07-30T04:51:51.827Z,1000.82
2018-07-30T04:52:51.844Z,1000.85
2018-07-30T04:53:51.808Z,1000.87
2018-07-30T04:54:51.802Z,1000.87
2018-07-30T04:55:51.784Z,1000.90
2018-07-30T04:56:51.794Z,1000.94
2018-07-30T04:57:51.800Z,1000.91
2018-07-30T04:58:51.751Z,1000.93
2018-07-30T04:59:51.740Z,1000.95
2018-07-30T05:00:51.734Z,1001.00
2018-07-30T05:01:51.716Z,1001.01
2018-07-30T05:02:51.707Z,1001.02
2018-07-30T05:03:51.767Z,1001.04
2018-07-30T05:04:51.685Z,1001.02
2018-07-30T05:05:51.681Z,1001.05
2018-07-30T05:06:51.664Z,1001.04
2018-07-30T05:07:51.651Z,1001.05
2018-07-30T05:08:51.668Z,1001.07
2018-07-30T05:09:51.630Z,1001.08
2018-07-30T05:10:51.621Z,1001.04
2018-07-30T05:11:51.608Z,1001.09
2018-07-30T05:12:51.597Z,1001.08
2018-07-30T05:13:51.619Z,1001.06
2018-07-30T05:14:51.577Z,1001.04
2018-07-30T05:15:51.564Z,1001.03
2018-07-30T05:16:51.555Z,1001.05
2018-07-30T05:17:51.541Z,1001.00
2018-07-30T05:18:51.561Z,1001.04
2018-07-30T05:19:51.519Z,1001.04
2018-07-30T05:20:51.508Z,1001.02
2018-07-30T05:21:51.501Z,1000.98
2018-07-30T05:22:51.486Z,1000.99
2018-07-30T05:23:51.501Z,1000.99
2018-07-30T05:24:51.463Z,1001.02
2018-07-30T05:25:51.455Z,1000.98
2018-07-30T05:26:51.442Z,1001.00
2018-07-30T05:27:51.431Z,1001.00
2018-07-30T05:28:51.499Z,1000.98
2018-07-30T05:29:51.409Z,1000.99
2018-07-30T05:30:51.397Z,1000.99
2018-07-30T05:31:51.390Z,1000.97
2018-07-30T05:32:51.376Z,1000.99
2018-07-30T05:33:51.392Z,1000.96
2018-07-30T05:34:51.352Z,1000.96
2018-07-30T05:35:51.342Z,1000.93
2018-07-30T05:36:51.331Z,1000.95
2018-07-30T05:37:51.319Z,1000.96
2018-07-30T05:38:51.335Z,1000.94
2018-07-30T05:39:51.296Z,1000.94
2018-07-30T05:40:51.286Z,1000.97
2018-07-30T05:41:51.275Z,1000.97
2018-07-30T05:42:51.273Z,1000.99
2018-07-30T05:43:51.297Z,1001.00
2018-07-30T05:44:51.249Z,1001.00
2018-07-30T05:45:51.235Z,1001.01
2018-07-30T05:46:51.223Z,1000.99
2018-07-30T05:47:51.209Z,1001.02
2018-07-30T05:48:51.225Z,1001.03
2018-07-30T05:49:51.187Z,1001.01
2018-07-30T05:50:51.177Z,1001.03
2018-07-30T05:51:51.167Z,1001.06
2018-07-30T05:52:51.158Z,1001.06
2018-07-30T05:53:51.169Z,1001.04
2018-07-30T05:54:51.131Z,1001.01
2018-07-30T05:55:51.121Z,1001.04
2018-07-30T05:56:51.110Z,1001.05
2018-07-30T05:57:51.099Z,1001.06
2018-07-30T05:58:51.118Z,1001.04
2018-07-30T05:59:51.142Z,1001.05
2018-07-30T06:00:51.066Z,1001.09
2018-07-30T06:01:51.055Z,1001.10
2018-07-30T06:02:51.044Z,1001.13
2018-07-30T06:03:51.063Z,1001.14
2018-07-30T06:04:51.021Z,1001.14
2018-07-30T06:05:51.013Z,1001.19
2018-07-30T06:06:51.000Z,1001.17
2018-07-30T06:07:50.989Z,1001.22
2018-07-30T06:08:51.018Z,1001.18
2018-07-30T06:09:50.966Z,1001.20
2018-07-30T06:10:50.955Z,1001.21
2018-07-30T06:11:50.946Z,1001.26
2018-07-30T06:12:50.935Z,1001.27
2018-07-30T06:13:50.922Z,1001.24
2018-07-30T06:14:50.947Z,1001.21
2018-07-30T06:15:50.898Z,1001.22
2018-07-30T06:16:50.887Z,1001.27
2018-07-30T06:17:50.881Z,1001.24
2018-07-30T06:18:50.874Z,1001.26
2018-07-30T06:19:50.885Z,1001.29
2018-07-30T06:20:50.880Z,1001.27
2018-07-30T06:21:50.832Z,1001.32
2018-07-30T06:22:50.821Z,1001.34
2018-07-30T06:23:50.811Z,1001.31
2018-07-30T06:24:50.827Z,1001.31
2018-07-30T06:25:50.797Z,1001.35
2018-07-30T06:26:50.777Z,1001.31
2018-07-30T06:27:50.767Z,1001.34
2018-07-30T06:28:50.754Z,1001.38
2018-07-30T06:29:50.768Z,1001.42
2018-07-30T06:30:50.733Z,1001.40
2018-07-30T06:31:50.770Z,1001.42
2018-07-30T06:32:50.711Z,1001.43
2018-07-30T06:33:50.700Z,1001.46
2018-07-30T06:34:50.714Z,1001.48
2018-07-30T06:35:50.676Z,1001.53
2018-07-30T06:36:50.670Z,1001.53
2018-07-30T06:37:50.654Z,1001.51
2018-07-30T06:38:50.652Z,1001.53
2018-07-30T06:39:50.659Z,1001.55
2018-07-30T06:40:50.624Z,1001.58
2018-07-30T06:41:50.612Z,1001.56
2018-07-30T06:42:50.605Z,1001.59
2018-07-30T06:43:50.588Z,1001.60
2018-07-30T06:44:50.608Z,1001.61
2018-07-30T06:45:50.570Z,1001.59
2018-07-30T06:46:50.556Z,1001.59
2018-07-30T06:47:50.584Z,1001.64
2018-07-30T06:48:50.539Z,1001.63
2018-07-30T06:49:50.555Z,1001.64
2018-07-30T06:50:50.511Z,1001.64
2018-07-30T06:51:50.501Z,1001.67
2018-07-30T06:52:50.521Z,1001.67
2018-07-30T06:53:50.483Z,1001.67
2018-07-30T06:54:50.544Z,1001.69
2018-07-30T06:55:50.462Z,1001.69
2018-07-30T06:56:50.446Z,1001.70
2018-07-30T06:57:50.442Z,1001.69
2018-07-30T06:58:50.424Z,1001.69
2018-07-30T06:59:50.440Z,1001.70
2018-07-30T07:00:50.403Z,1001.70
2018-07-30T07:01:50.394Z,1001.69
2018-07-30T07:02:50.381Z,1001.73
2018-07-30T07:03:50.368Z,1001.76
2018-07-30T07:04:50.386Z,1001.74
2018-07-30T07:05:50.348Z,1001.74
2018-07-30T07:06:50.334Z,1001.78
2018-07-30T07:07:50.324Z,1001.72
2018-07-30T07:08:50.319Z,1001.76
2018-07-30T07:09:50.334Z,1001.75
2018-07-30T07:10:50.299Z,1001.78
2018-07-30T07:11:50.281Z,1001.79
2018-07-30T07:12:50.270Z,1001.83
2018-07-30T07:13:50.259Z,1001.85
2018-07-30T07:14:50.275Z,1001.83
2018-07-30T07:15:50.238Z,1001.83
2018-07-30T07:16:50.273Z,1001.84
2018-07-30T07:17:50.215Z,1001.83
2018-07-30T07:18:50.204Z,1001.84
2018-07-30T07:19:50.220Z,1001.84
2018-07-30T07:20:50.285Z,1001.83
2018-07-30T07:21:50.191Z,1001.83
2018-07-30T07:22:50.164Z,1001.81
2018-07-30T07:23:50.151Z,1001.79
2018-07-30T07:24:50.201Z,1001.80
2018-07-30T07:25:50.127Z,1001.82
2018-07-30T07:26:50.170Z,1001.82
2018-07-30T07:27:50.108Z,1001.79
2018-07-30T07:28:50.094Z,1001.77
2018-07-30T07:29:50.082Z,1001.73
2018-07-30T07:30:50.097Z,1001.73
2018-07-30T07:31:50.060Z,1001.73
2018-07-30T07:32:50.048Z,1001.72
2018-07-30T07:33:50.038Z,1001.73
2018-07-30T07:34:50.072Z,1001.72
2018-07-30T07:35:50.042Z,1001.67
2018-07-30T07:36:50.005Z,1001.67
2018-07-30T07:37:49.995Z,1001.69
2018-07-30T07:38:49.983Z,1001.65
2018-07-30T07:39:49.970Z,1001.64
2018-07-30T07:40:49.995Z,1001.65
2018-07-30T07:41:49.949Z,1001.63
2018-07-30T07:42:49.940Z,1001.65
2018-07-30T07:43:49.929Z,1001.64
2018-07-30T07:44:49.951Z,1001.67
2018-07-30T07:45:49.929Z,1001.63
2018-07-30T07:46:49.900Z,1001.66
2018-07-30T07:47:49.883Z,1001.67
2018-07-30T07:48:49.871Z,1001.63
2018-07-30T07:49:49.859Z,1001.67
2018-07-30T07:50:50.093Z,1001.66
2018-07-30T07:51:49.839Z,1001.66
2018-07-30T07:52:49.825Z,1001.66
2018-07-30T07:53:49.816Z,1001.67
2018-07-30T07:54:49.803Z,1001.68
2018-07-30T07:55:49.818Z,1001.70
2018-07-30T07:56:49.783Z,1001.69
2018-07-30T07:57:49.772Z,1001.70
2018-07-30T07:58:49.758Z,1001.72
2018-07-30T07:59:49.749Z,1001.69
2018-07-30T08:00:49.762Z,1001.70
2018-07-30T08:01:49.724Z,1001.71
2018-07-30T08:02:49.720Z,1001.68
2018-07-30T08:03:49.703Z,1001.69
2018-07-30T08:04:49.692Z,1001.71
2018-07-30T08:05:49.711Z,1001.64
2018-07-30T08:06:49.668Z,1001.67
2018-07-30T08:07:49.659Z,1001.65
2018-07-30T08:08:49.646Z,1001.62
2018-07-30T08:09:49.733Z,1001.65
2018-07-30T08:10:49.707Z,1001.63
2018-07-30T08:11:49.612Z,1001.67
2018-07-30T08:12:49.605Z,1001.68
2018-07-30T08:13:49.591Z,1001.67
2018-07-30T08:14:49.579Z,1001.68
2018-07-30T08:15:49.594Z,1001.67
2018-07-30T08:16:49.559Z,1001.67
2018-07-30T08:17:49.545Z,1001.64
2018-07-30T08:18:49.535Z,1001.66
2018-07-30T08:19:49.523Z,1001.69
2018-07-30T08:20:49.538Z,1001.58
2018-07-30T08:21:49.502Z,1001.68
2018-07-30T08:22:49.492Z,1001.67
2018-07-30T08:23:49.480Z,1001.71
2018-07-30T08:24:49.467Z,1001.69
2018-07-30T08:25:49.482Z,1001.71
2018-07-30T08:26:49.445Z,1001.72
2018-07-30T08:27:49.433Z,1001.71
2018-07-30T08:28:49.421Z,1001.73
2018-07-30T08:29:49.412Z,1001.71
2018-07-30T08:30:49.428Z,1001.71
2018-07-30T08:31:49.388Z,1001.72
2018-07-30T08:32:49.379Z,1001.73
2018-07-30T08:33:49.368Z,1001.72
2018-07-30T08:34:49.357Z,1001.70
2018-07-30T08:35:49.371Z,1001.66
2018-07-30T08:36:49.333Z,1001.67
2018-07-30T08:37:49.321Z,1001.72
2018-07-30T08:38:49.311Z,1001.71
2018-07-30T08:39:49.300Z,1001.71
2018-07-30T08:40:49.325Z,1001.71
2018-07-30T08:41:49.278Z,1001.72
2018-07-30T08:42:49.270Z,1001.77
2018-07-30T08:43:49.256Z,1001.74
2018-07-30T08:44:49.244Z,1001.77
2018-07-30T08:45:49.236Z,1001.78
2018-07-30T08:46:49.250Z,1001.81
2018-07-30T08:47:49.209Z,1001.76
2018-07-30T08:48:49.281Z,1001.81
2018-07-30T08:49:49.193Z,1001.82
2018-07-30T08:50:49.177Z,1001.80
2018-07-30T08:51:49.192Z,1001.81
2018-07-30T08:52:49.156Z,1001.78
2018-07-30T08:53:49.144Z,1001.83
2018-07-30T08:54:49.132Z,1001.84
2018-07-30T08:55:49.121Z,1001.79
2018-07-30T08:56:49.139Z,1001.80
2018-07-30T08:57:49.100Z,1001.81
2018-07-30T08:58:49.088Z,1001.78
2018-07-30T08:59:49.076Z,1001.80
2018-07-30T09:00:49.066Z,1001.81
2018-07-30T09:01:49.082Z,1001.84
2018-07-30T09:02:49.046Z,1001.80
2018-07-30T09:03:49.036Z,1001.81
2018-07-30T09:04:49.024Z,1001.79
2018-07-30T09:05:49.010Z,1001.76
2018-07-30T09:06:49.026Z,1001.78
2018-07-30T09:07:48.987Z,1001.79
2018-07-30T09:08:48.978Z,1001.80
2018-07-30T09:09:48.974Z,1001.75
2018-07-30T09:10:48.956Z,1001.72
2018-07-30T09:11:48.972Z,1001.73
2018-07-30T09:12:49.144Z,1001.73
2018-07-30T09:13:48.922Z,1001.71
2018-07-30T09:14:48.912Z,1001.68
2018-07-30T09:15:48.901Z,1001.66
2018-07-30T09:16:48.916Z,1001.71
2018-07-30T09:17:48.876Z,1001.70
2018-07-30T09:18:48.873Z,1001.68
2018-07-30T09:19:48.855Z,1001.72
2018-07-30T09:20:48.851Z,1001.69
2018-07-30T09:21:48.857Z,1001.70
2018-07-30T09:22:48.822Z,1001.72
2018-07-30T09:23:48.813Z,1001.70
2018-07-30T09:24:48.798Z,1001.68
2018-07-30T09:25:48.790Z,1001.70
2018-07-30T09:36:43.829Z,1001.60
2018-07-30T09:37:43.759Z,1001.61
2018-07-30T09:38:43.749Z,1001.52
2018-07-30T09:39:43.639Z,1001.60
2018-07-30T09:40:43.566Z,1001.55
2018-07-30T09:41:43.508Z,1001.57
2018-07-30T09:42:43.394Z,1001.58
2018-07-30T09:43:43.303Z,1001.57
2018-07-30T09:44:43.261Z,1001.56
2018-07-30T09:45:43.108Z,1001.55
2018-07-30T09:46:43.030Z,1001.55
2018-07-30T09:47:42.908Z,1001.57
2018-07-30T09:48:42.807Z,1001.54
2018-07-30T09:49:42.707Z,1001.53
2018-07-30T09:50:42.599Z,1001.58
2018-07-30T09:51:42.542Z,1001.59
2018-07-30T09:52:42.389Z,1001.56
2018-07-30T09:53:42.275Z,1001.56
2018-07-30T09:54:42.165Z,1001.57
2018-07-30T09:55:42.053Z,1001.58
2018-07-30T09:56:41.948Z,1001.57
2018-07-30T09:57:41.854Z,1001.59
2018-07-30T09:58:41.706Z,1001.56
2018-07-30T09:59:41.588Z,1001.51
2018-07-30T10:00:41.475Z,1001.53
2018-07-30T10:01:41.349Z,1001.55
2018-07-30T10:02:41.272Z,1001.52
2018-07-30T10:03:41.112Z,1001.47
2018-07-30T10:04:40.991Z,1001.44
2018-07-30T10:05:40.875Z,1001.42
2018-07-30T10:06:40.750Z,1001.44
2018-07-30T10:07:40.661Z,1001.46
2018-07-30T10:08:40.512Z,1001.40
2018-07-30T10:09:40.394Z,1001.37
2018-07-30T10:10:40.272Z,1001.37
2018-07-30T10:11:40.164Z,1001.35
2018-07-30T10:12:40.056Z,1001.38
2018-07-30T10:13:39.916Z,1001.36
2018-07-30T10:14:39.775Z,1001.35
2018-07-30T10:15:39.644Z,1001.36
2018-07-30T10:16:39.520Z,1001.34
2018-07-30T10:17:39.467Z,1001.32
2018-07-30T10:18:39.270Z,1001.32
2018-07-30T10:19:39.145Z,1001.33
2018-07-30T10:20:39.041Z,1001.32
2018-07-30T10:21:38.897Z,1001.27
2018-07-30T10:22:38.798Z,1001.32
2018-07-30T10:23:38.769Z,1001.29
2018-07-30T10:24:38.523Z,1001.29
2018-07-30T10:25:38.389Z,1001.33
2018-07-30T10:26:38.264Z,1001.23
2018-07-30T10:27:38.165Z,1001.28
2018-07-30T10:28:37.994Z,1001.24
2018-07-30T10:29:37.861Z,1001.21
2018-07-30T10:30:37.782Z,1001.24
2018-07-30T10:31:37.588Z,1001.24
2018-07-30T10:32:37.479Z,1001.29
2018-07-30T10:33:37.317Z,1001.27
2018-07-30T10:34:37.260Z,1001.25
2018-07-30T10:35:37.054Z,1001.24
2018-07-30T10:36:36.918Z,1001.29
2018-07-30T10:37:36.847Z,1001.24
2018-07-30T10:38:36.655Z,1001.30
2018-07-30T10:39:36.521Z,1001.30
2018-07-30T10:40:36.388Z,1001.28
2018-07-30T10:41:36.271Z,1001.27
2018-07-30T10:42:36.162Z,1001.25
2018-07-30T10:43:36.042Z,1001.19
2018-07-30T10:44:35.862Z,1001.21
2018-07-30T10:45:35.731Z,1001.11
2018-07-30T10:46:35.599Z,1001.21
2018-07-30T10:47:35.495Z,1001.14
2018-07-30T10:48:35.324Z,1001.14
2018-07-30T10:49:35.190Z,1001.16
2018-07-30T10:50:35.057Z,1001.20
2018-07-30T10:51:34.919Z,1001.21
2018-07-30T10:52:34.812Z,1001.18
2018-07-30T10:53:34.666Z,1001.17
2018-07-30T10:54:34.588Z,1001.20
2018-07-30T10:55:34.397Z,1001.19
2018-07-30T10:56:34.297Z,1001.12
2018-07-30T10:57:34.160Z,1001.13
2018-07-30T10:58:33.994Z,1001.08
2018-07-30T10:59:33.864Z,1001.11
2018-07-30T11:00:33.731Z,1001.13
2018-07-30T11:01:33.600Z,1001.10
2018-07-30T11:02:33.488Z,1001.06
2018-07-30T11:03:33.322Z,1001.06
2018-07-30T11:04:33.182Z,1001.03
2018-07-30T11:05:33.040Z,1001.04
2018-07-30T11:06:32.915Z,1001.03
2018-07-30T11:07:32.786Z,1001.07
2018-07-30T11:08:32.624Z,1001.03
2018-07-30T11:09:32.529Z,1001.08
2018-07-30T11:10:32.343Z,1001.03
2018-07-30T11:11:32.220Z,1001.03
2018-07-30T11:12:32.092Z,1001.03
2018-07-30T11:13:31.943Z,1001.06
2018-07-30T11:14:31.792Z,1001.06
2018-07-30T11:15:31.650Z,1001.03
2018-07-30T11:16:31.514Z,1001.06
2018-07-30T11:17:31.395Z,1001.01
2018-07-30T11:18:31.240Z,1001.02
2018-07-30T11:19:31.071Z,1000.92
2018-07-30T11:20:30.924Z,1000.93
2018-07-30T11:21:30.821Z,1000.90
2018-07-30T11:22:30.628Z,1000.97
2018-07-30T11:23:30.500Z,1000.89
2018-07-30T11:24:30.371Z,1000.87
2018-07-30T11:25:30.183Z,1000.89
2018-07-30T11:26:30.030Z,1000.93
2018-07-30T11:27:29.881Z,1000.88
2018-07-30T11:28:29.764Z,1000.90
2018-07-30T11:29:29.580Z,1000.91
2018-07-30T11:30:29.433Z,1000.82
2018-07-30T11:31:29.304Z,1000.90
2018-07-30T11:32:29.144Z,1000.80
2018-07-30T11:33:29.057Z,1000.85
2018-07-30T11:34:28.852Z,1000.84
2018-07-30T11:35:28.727Z,1000.82
2018-07-30T11:36:28.561Z,1000.77
2018-07-30T11:37:28.431Z,1000.80
2018-07-30T11:38:28.299Z,1000.85
2018-07-30T11:39:28.150Z,1000.82
2018-07-30T11:40:27.982Z,1000.81
2018-07-30T11:41:27.827Z,1000.75
2018-07-30T11:42:27.683Z,1000.73
2018-07-30T11:43:27.558Z,1000.73
2018-07-30T11:44:27.386Z,1000.70
2018-07-30T11:45:27.256Z,1000.65
2018-07-30T11:46:27.090Z,1000.67
2018-07-30T11:47:26.956Z,1000.62
2018-07-30T11:48:26.896Z,1000.62
2018-07-30T11:49:26.640Z,1000.63
2018-07-30T11:50:26.494Z,1000.60
2018-07-30T11:51:26.337Z,1000.60
2018-07-30T11:52:26.187Z,1000.67
2018-07-30T11:53:26.053Z,1000.64
2018-07-30T11:54:25.971Z,1000.68
2018-07-30T11:55:25.722Z,1000.61
2018-07-30T11:56:25.574Z,1000.62
2018-07-30T11:57:25.412Z,1000.60
2018-07-30T11:58:25.289Z,1000.63
2018-07-30T11:59:25.108Z,1000.61
2018-07-30T12:00:24.951Z,1000.58
2018-07-30T12:01:24.849Z,1000.59
2018-07-30T12:02:24.634Z,1000.57
2018-07-30T12:03:24.505Z,1000.56
2018-07-30T12:04:24.328Z,1000.56
2018-07-30T12:05:24.162Z,1000.56
2018-07-30T12:06:24.041Z,1000.55
2018-07-30T12:07:23.875Z,1000.53
2018-07-30T12:08:23.713Z,1000.47
2018-07-30T12:09:23.513Z,1000.48
2018-07-30T12:10:23.352Z,1000.44
2018-07-30T12:11:23.191Z,1000.47
2018-07-30T12:12:23.046Z,1000.46
2018-07-30T12:13:22.891Z,1000.48
2018-07-30T12:14:22.816Z,1000.50
2018-07-30T12:15:22.547Z,1000.52
2018-07-30T12:16:22.411Z,1000.48
2018-07-30T12:17:22.212Z,1000.49
2018-07-30T12:18:22.053Z,1000.41